createdAt,value
2017-12-23T00:00:38.794Z,86.68
2017-12-23T00:01:19.355Z,87.34
2017-12-23T00:01:59.984Z,87.05
2017-12-23T00:02:40.575Z,87.34
2017-12-23T00:03:21.154Z,87.05
2017-12-23T00:04:01.725Z,87.05
2017-12-23T00:04:42.308Z,86.77
2017-12-23T00:05:22.895Z,86.77
2017-12-23T00:06:03.474Z,86.96
2017-12-23T00:06:44.107Z,86.96
2017-12-23T00:07:24.719Z,86.68
2017-12-23T00:08:05.289Z,87.05
2017-12-23T00:08:45.917Z,86.96
2017-12-23T00:09:26.462Z,86.96
2017-12-23T00:10:07.061Z,87.19
2017-12-23T00:10:47.631Z,87.05
2017-12-23T00:11:28.208Z,86.96
2017-12-23T00:12:08.796Z,86.87
2017-12-23T00:12:49.373Z,86.58
2017-12-23T00:13:29.936Z,86.77
2017-12-23T00:14:10.568Z,86.87
2017-12-23T00:14:51.128Z,86.87
2017-12-23T00:15:31.722Z,86.96
2017-12-23T00:16:12.276Z,86.87
2017-12-23T00:16:52.844Z,87.05
2017-12-23T00:17:33.487Z,87.05
2017-12-23T00:18:13.988Z,86.87
2017-12-23T00:18:54.584Z,86.96
2017-12-23T00:19:35.167Z,86.96
2017-12-23T00:20:15.749Z,87.05
2017-12-23T00:20:56.307Z,87.53
2017-12-23T00:21:36.875Z,87.05
2017-12-23T00:22:17.517Z,86.87
2017-12-23T00:22:58.095Z,87.05
2017-12-23T00:23:38.705Z,87.53
2017-12-23T00:24:19.275Z,87.34
2017-12-23T00:24:59.868Z,87.62
2017-12-23T00:25:40.421Z,87.72
2017-12-23T00:26:21.006Z,87.43
2017-12-23T00:27:01.593Z,87.24
2017-12-23T00:27:42.152Z,87.34
2017-12-23T00:28:22.746Z,87.72
2017-12-23T00:29:03.345Z,87.91
2017-12-23T00:29:43.904Z,88.01
2017-12-23T00:30:24.471Z,88.1
2017-12-23T00:31:05.030Z,87.91
2017-12-23T00:31:45.631Z,88.1
2017-12-23T00:32:26.199Z,88.29
2017-12-23T00:33:06.769Z,88.2
2017-12-23T00:33:47.362Z,87.82
2017-12-23T00:34:27.930Z,88.01
2017-12-23T00:35:08.496Z,87.91
2017-12-23T00:35:49.103Z,88.2
2017-12-23T00:36:29.664Z,88.2
2017-12-23T00:37:10.253Z,88.01
2017-12-23T00:37:50.846Z,87.82
2017-12-23T00:38:31.411Z,88.1
2017-12-23T00:39:12.009Z,88.01
2017-12-23T00:39:52.583Z,88.01
2017-12-23T00:40:33.163Z,88.01
2017-12-23T00:41:13.732Z,88.57
2017-12-23T00:41:54.309Z,88.39
2017-12-23T00:42:34.927Z,88.39
2017-12-23T00:43:15.552Z,88.67
2017-12-23T00:43:56.128Z,88.01
2017-12-23T00:44:36.719Z,88.57
2017-12-23T00:45:17.295Z,88.95
2017-12-23T00:45:57.863Z,88.86
2017-12-23T00:46:38.447Z,88.67
2017-12-23T00:47:18.997Z,88.57
2017-12-23T00:47:59.610Z,88.29
2017-12-23T00:48:40.160Z,88.01
2017-12-23T00:49:20.740Z,88.1
2017-12-23T00:50:01.317Z,88.39
2017-12-23T00:50:41.884Z,88.57
2017-12-23T00:51:22.509Z,88.2
2017-12-23T00:52:03.097Z,88.1
2017-12-23T00:52:43.676Z,88.2
2017-12-23T00:53:24.258Z,88.48
2017-12-23T00:54:04.829Z,88.2
2017-12-23T00:54:45.397Z,87.91
2017-12-23T00:55:25.973Z,88.01
2017-12-23T00:56:06.526Z,87.72
2017-12-23T00:56:47.121Z,87.82
2017-12-23T00:57:27.681Z,88.67
2017-12-23T00:58:08.274Z,88.39
2017-12-23T00:58:48.856Z,88.48
2017-12-23T00:59:29.439Z,88.57
2017-12-23T01:00:10.038Z,88.29
2017-12-23T01:00:50.610Z,88.2
2017-12-23T01:01:31.232Z,88.1
2017-12-23T01:02:11.838Z,88.1
2017-12-23T01:02:52.443Z,87.72
2017-12-23T01:03:33.053Z,87.72
2017-12-23T01:04:13.633Z,87.24
2017-12-23T01:04:54.206Z,87.05
2017-12-23T01:05:34.791Z,87.05
2017-12-23T01:06:15.371Z,87.62
2017-12-23T01:06:55.948Z,87.43
2017-12-23T01:07:36.555Z,87.82
2017-12-23T01:08:17.141Z,87.72
2017-12-23T01:08:57.711Z,87.72
2017-12-23T01:09:38.274Z,87.72
2017-12-23T01:10:18.898Z,87.82
2017-12-23T01:10:59.469Z,87.72
2017-12-23T01:11:40.092Z,87.82
2017-12-23T01:12:20.661Z,87.72
2017-12-23T01:13:01.230Z,87.53
2017-12-23T01:13:41.805Z,87.62
2017-12-23T01:14:22.388Z,87.91
2017-12-23T01:15:02.953Z,88.01
2017-12-23T01:15:43.503Z,87.62
2017-12-23T01:16:24.090Z,87.72
2017-12-23T01:17:04.657Z,88.01
2017-12-23T01:17:45.237Z,88.01
2017-12-23T01:18:25.798Z,88.39
2017-12-23T01:19:06.364Z,88.57
2017-12-23T01:19:46.950Z,88.2
2017-12-23T01:20:27.567Z,88.2
2017-12-23T01:21:08.151Z,88.29
2017-12-23T01:21:48.784Z,88.1
2017-12-23T01:22:29.325Z,88.29
2017-12-23T01:23:09.913Z,88.01
2017-12-23T01:23:50.488Z,88.67
2017-12-23T01:24:31.093Z,88.48
2017-12-23T01:25:11.653Z,88.48
2017-12-23T01:25:52.230Z,88.2
2017-12-23T01:26:32.793Z,88.57
2017-12-23T01:27:13.361Z,88.57
2017-12-23T01:27:53.921Z,88.57
2017-12-23T01:28:34.489Z,88.57
2017-12-23T01:29:15.063Z,88.39
2017-12-23T01:29:55.664Z,88.57
2017-12-23T01:30:36.224Z,88.67
2017-12-23T01:31:16.800Z,88.76
2017-12-23T01:31:57.385Z,88.57
2017-12-23T01:32:37.955Z,88.2
2017-12-23T01:33:18.536Z,88.29
2017-12-23T01:33:59.123Z,88.29
2017-12-23T01:34:39.689Z,88.29
2017-12-23T01:35:20.286Z,88.1
2017-12-23T01:36:00.848Z,88.1
2017-12-23T01:36:41.414Z,87.72
2017-12-23T01:37:21.999Z,87.72
2017-12-23T01:38:02.555Z,87.91
2017-12-23T01:38:43.117Z,87.82
2017-12-23T01:39:23.723Z,87.91
2017-12-23T01:40:04.307Z,87.82
2017-12-23T01:40:44.869Z,87.91
2017-12-23T01:41:25.442Z,87.82
2017-12-23T01:42:06.028Z,88.29
2017-12-23T01:42:46.616Z,87.34
2017-12-23T01:43:27.236Z,87.62
2017-12-23T01:44:07.836Z,87.15
2017-12-23T01:44:48.412Z,87.34
2017-12-23T01:45:28.978Z,87.05
2017-12-23T01:46:09.539Z,87.53
2017-12-23T01:46:50.138Z,87.24
2017-12-23T01:47:30.694Z,87.53
2017-12-23T01:48:11.256Z,87.62
2017-12-23T01:48:51.823Z,87.53
2017-12-23T01:49:32.400Z,87.24
2017-12-23T01:50:12.997Z,87.05
2017-12-23T01:50:53.601Z,87.24
2017-12-23T01:51:34.167Z,86.96
2017-12-23T01:52:14.757Z,86.87
2017-12-23T01:52:55.342Z,87.24
2017-12-23T01:53:35.922Z,87.05
2017-12-23T01:54:16.498Z,87.24
2017-12-23T01:54:57.103Z,87.62
2017-12-23T01:55:37.676Z,87.24
2017-12-23T01:56:18.269Z,87.62
2017-12-23T01:56:58.850Z,87.24
2017-12-23T01:57:39.434Z,87.43
2017-12-23T01:58:20.020Z,87.05
2017-12-23T01:59:00.620Z,87.15
2017-12-23T01:59:41.205Z,87.15
2017-12-23T02:00:21.786Z,87.15
2017-12-23T02:01:02.362Z,87.15
2017-12-23T02:01:42.977Z,87.15
2017-12-23T02:02:23.560Z,86.96
2017-12-23T02:03:04.160Z,86.96
2017-12-23T02:03:44.727Z,86.39
2017-12-23T02:04:25.337Z,86.39
2017-12-23T02:05:05.934Z,86.49
2017-12-23T02:05:46.495Z,86.77
2017-12-23T02:06:27.057Z,86.68
2017-12-23T02:07:07.633Z,86.96
2017-12-23T02:07:48.194Z,86.87
2017-12-23T02:08:28.751Z,86.77
2017-12-23T02:09:09.316Z,86.87
2017-12-23T02:09:49.871Z,86.68
2017-12-23T02:10:30.451Z,86.87
2017-12-23T02:11:11.027Z,86.87
2017-12-23T02:11:51.591Z,86.77
2017-12-23T02:12:32.162Z,86.58
2017-12-23T02:13:12.725Z,86.2
2017-12-23T02:13:53.279Z,86.49
2017-12-23T02:14:33.879Z,86.58
2017-12-23T02:15:14.442Z,86.49
2017-12-23T02:15:55.006Z,86.68
2017-12-23T02:16:35.588Z,86.11
2017-12-23T02:17:16.176Z,85.72
2017-12-23T02:17:56.753Z,85.72
2017-12-23T02:18:37.360Z,85.91
2017-12-23T02:19:17.906Z,85.91
2017-12-23T02:19:58.480Z,86.2
2017-12-23T02:20:39.130Z,85.82
2017-12-23T02:21:19.692Z,86.11
2017-12-23T02:22:00.298Z,85.91
2017-12-23T02:22:40.906Z,85.82
2017-12-23T02:23:21.518Z,85.91
2017-12-23T02:24:02.112Z,85.82
2017-12-23T02:24:42.688Z,86.01
2017-12-23T02:25:23.283Z,85.82
2017-12-23T02:26:03.862Z,85.72
2017-12-23T02:26:44.472Z,86.01
2017-12-23T02:27:25.059Z,85.91
2017-12-23T02:28:05.626Z,86.01
2017-12-23T02:28:46.202Z,85.16
2017-12-23T02:29:26.776Z,85.25
2017-12-23T02:30:07.348Z,85.72
2017-12-23T02:30:47.921Z,85.16
2017-12-23T02:31:28.497Z,85.35
2017-12-23T02:32:09.059Z,84.97
2017-12-23T02:32:49.634Z,85.06
2017-12-23T02:33:30.206Z,84.87
2017-12-23T02:34:10.778Z,85.06
2017-12-23T02:34:51.333Z,84.97
2017-12-23T02:35:31.903Z,85.44
2017-12-23T02:36:12.472Z,85.53
2017-12-23T02:36:53.045Z,85.53
2017-12-23T02:37:33.610Z,86.11
2017-12-23T02:38:14.173Z,85.35
2017-12-23T02:38:54.743Z,85.25
2017-12-23T02:39:35.335Z,85.25
2017-12-23T02:40:15.892Z,85.44
2017-12-23T02:40:56.465Z,85.35
2017-12-23T02:41:37.040Z,86.11
2017-12-23T02:42:17.620Z,86.01
2017-12-23T02:42:58.221Z,85.82
2017-12-23T02:43:38.793Z,85.91
2017-12-23T02:44:19.357Z,85.91
2017-12-23T02:44:59.954Z,85.82
2017-12-23T02:45:40.508Z,86.01
2017-12-23T02:46:21.096Z,86.11
2017-12-23T02:47:01.663Z,86.11
2017-12-23T02:47:42.237Z,86.11
2017-12-23T02:48:22.809Z,85.91
2017-12-23T02:49:03.386Z,85.91
2017-12-23T02:49:43.965Z,85.82
2017-12-23T02:50:24.558Z,86.11
2017-12-23T02:51:05.135Z,86.01
2017-12-23T02:51:45.734Z,86.11
2017-12-23T02:52:26.315Z,86.58
2017-12-23T02:53:06.937Z,86.39
2017-12-23T02:53:47.497Z,86.58
2017-12-23T02:54:28.075Z,86.77
2017-12-23T02:55:08.660Z,86.68
2017-12-23T02:55:49.274Z,86.3
2017-12-23T02:56:29.825Z,86.58
2017-12-23T02:57:10.403Z,86.58
2017-12-23T02:57:50.984Z,86.3
2017-12-23T02:58:31.574Z,86.3
2017-12-23T02:59:12.162Z,86.39
2017-12-23T02:59:52.754Z,86.2
2017-12-23T03:00:33.328Z,86.39
2017-12-23T03:01:13.916Z,86.39
2017-12-23T03:01:54.482Z,86.77
2017-12-23T03:02:35.056Z,86.3
2017-12-23T03:03:15.635Z,86.58
2017-12-23T03:03:56.216Z,86.49
2017-12-23T03:04:36.784Z,86.2
2017-12-23T03:05:17.368Z,86.58
2017-12-23T03:05:57.946Z,86.68
2017-12-23T03:06:38.520Z,86.68
2017-12-23T03:07:19.099Z,86.87
2017-12-23T03:07:59.699Z,86.68
2017-12-23T03:08:40.288Z,86.87
2017-12-23T03:09:20.854Z,86.39
2017-12-23T03:10:01.419Z,86.39
2017-12-23T03:10:42.036Z,86.58
2017-12-23T03:11:22.619Z,86.49
2017-12-23T03:12:03.215Z,86.39
2017-12-23T03:12:43.777Z,86.3
2017-12-23T03:13:24.343Z,86.2
2017-12-23T03:14:04.954Z,86.39
2017-12-23T03:14:45.520Z,86.3
2017-12-23T03:15:26.097Z,86.3
2017-12-23T03:16:06.674Z,86.68
2017-12-23T03:16:47.261Z,85.91
2017-12-23T03:17:27.879Z,86.3
2017-12-23T03:18:08.455Z,85.72
2017-12-23T03:18:49.041Z,86.01
2017-12-23T03:19:29.630Z,86.2
2017-12-23T03:20:10.237Z,86.11
2017-12-23T03:20:50.767Z,86.2
2017-12-23T03:21:31.335Z,86.11
2017-12-23T03:22:11.910Z,86.11
2017-12-23T03:22:52.480Z,85.91
2017-12-23T03:23:33.070Z,86.58
2017-12-23T03:24:13.619Z,86.49
2017-12-23T03:24:54.190Z,86.39
2017-12-23T03:25:34.795Z,86.2
2017-12-23T03:26:15.367Z,86.39
2017-12-23T03:26:55.994Z,86.49
2017-12-23T03:27:36.582Z,86.39
2017-12-23T03:28:17.144Z,86.39
2017-12-23T03:28:57.711Z,86.68
2017-12-23T03:29:38.289Z,85.91
2017-12-23T03:30:18.879Z,85.91
2017-12-23T03:30:59.484Z,86.58
2017-12-23T03:31:40.053Z,86.58
2017-12-23T03:32:20.630Z,86.39
2017-12-23T03:33:01.218Z,86.58
2017-12-23T03:33:41.814Z,86.49
2017-12-23T03:34:22.404Z,86.11
2017-12-23T03:35:02.978Z,85.91
2017-12-23T03:35:43.547Z,85.82
2017-12-23T03:36:24.119Z,85.82
2017-12-23T03:37:04.710Z,85.91
2017-12-23T03:37:45.287Z,85.82
2017-12-23T03:38:25.888Z,86.11
2017-12-23T03:39:06.476Z,85.82
2017-12-23T03:39:47.104Z,86.01
2017-12-23T03:40:27.688Z,86.49
2017-12-23T03:41:08.246Z,86.39
2017-12-23T03:41:48.809Z,86.3
2017-12-23T03:42:29.399Z,86.87
2017-12-23T03:43:10.004Z,87.05
2017-12-23T03:43:50.665Z,86.87
2017-12-23T03:44:31.190Z,87.34
2017-12-23T03:45:11.806Z,87.34
2017-12-23T03:45:52.387Z,87.15
2017-12-23T03:46:32.993Z,87.24
2017-12-23T03:47:13.534Z,87.34
2017-12-23T03:47:54.149Z,86.96
2017-12-23T03:48:34.725Z,86.39
2017-12-23T03:49:15.304Z,86.3
2017-12-23T03:49:55.880Z,86.68
2017-12-23T03:50:36.511Z,86.87
2017-12-23T03:51:17.078Z,86.68
2017-12-23T03:51:57.658Z,87.11
2017-12-23T03:52:38.214Z,86.91
2017-12-23T03:53:18.774Z,87.01
2017-12-23T03:53:59.347Z,87.05
2017-12-23T03:54:39.929Z,87.24
2017-12-23T03:55:20.471Z,87.11
2017-12-23T03:56:01.056Z,86.91
2017-12-23T03:56:41.617Z,87.11
2017-12-23T03:57:22.193Z,87.11
2017-12-23T03:58:02.753Z,87.11
2017-12-23T03:58:43.321Z,87.01
2017-12-23T03:59:23.921Z,87.01
2017-12-23T04:00:04.519Z,87.49
2017-12-23T04:00:45.081Z,87.39
2017-12-23T04:01:25.660Z,87.68
2017-12-23T04:02:06.251Z,87.2
2017-12-23T04:02:46.837Z,87.3
2017-12-23T04:03:27.399Z,87.58
2017-12-23T04:04:07.980Z,87.58
2017-12-23T04:04:48.542Z,87.58
2017-12-23T04:05:29.113Z,87.58
2017-12-23T04:06:09.694Z,87.2
2017-12-23T04:06:50.268Z,87.49
2017-12-23T04:07:30.862Z,87.2
2017-12-23T04:08:11.426Z,87.11
2017-12-23T04:08:51.980Z,87.77
2017-12-23T04:09:32.544Z,87.68
2017-12-23T04:10:13.105Z,87.77
2017-12-23T04:10:53.700Z,87.96
2017-12-23T04:11:34.280Z,87.96
2017-12-23T04:12:14.844Z,88.15
2017-12-23T04:12:55.417Z,88.15
2017-12-23T04:13:35.986Z,87.96
2017-12-23T04:14:16.545Z,87.96
2017-12-23T04:14:57.113Z,87.68
2017-12-23T04:15:37.698Z,87.87
2017-12-23T04:16:18.323Z,88.06
2017-12-23T04:16:58.894Z,87.58
2017-12-23T04:17:39.465Z,87.96
2017-12-23T04:18:20.041Z,88.06
2017-12-23T04:19:00.633Z,87.96
2017-12-23T04:19:41.201Z,87.96
2017-12-23T04:20:21.787Z,87.96
2017-12-23T04:21:02.395Z,87.87
2017-12-23T04:21:42.957Z,87.68
2017-12-23T04:22:23.546Z,87.96
2017-12-23T04:23:04.113Z,87.87
2017-12-23T04:23:44.746Z,87.87
2017-12-23T04:24:25.319Z,87.96
2017-12-23T04:25:05.908Z,87.58
2017-12-23T04:25:46.468Z,87.68
2017-12-23T04:26:27.052Z,87.96
2017-12-23T04:27:07.647Z,88.06
2017-12-23T04:27:48.208Z,87.96
2017-12-23T04:28:28.768Z,87.96
2017-12-23T04:29:09.359Z,88.15
2017-12-23T04:29:49.960Z,87.96
2017-12-23T04:30:30.526Z,87.68
2017-12-23T04:31:11.104Z,87.68
2017-12-23T04:31:51.676Z,87.68
2017-12-23T04:32:32.250Z,87.77
2017-12-23T04:33:12.813Z,87.96
2017-12-23T04:33:53.407Z,88.06
2017-12-23T04:34:33.988Z,88.24
2017-12-23T04:35:14.575Z,88.06
2017-12-23T04:35:55.145Z,88.06
2017-12-23T04:36:35.730Z,88.24
2017-12-23T04:37:16.304Z,88.24
2017-12-23T04:37:56.883Z,87.87
2017-12-23T04:38:37.451Z,87.77
2017-12-23T04:39:18.021Z,88.34
2017-12-23T04:39:58.595Z,88.06
2017-12-23T04:40:39.156Z,88.53
2017-12-23T04:41:19.729Z,88.43
2017-12-23T04:42:00.313Z,88.15
2017-12-23T04:42:40.871Z,88.62
2017-12-23T04:43:21.457Z,88.34
2017-12-23T04:44:02.043Z,88.24
2017-12-23T04:44:42.615Z,88.53
2017-12-23T04:45:23.176Z,87.96
2017-12-23T04:46:03.772Z,88.24
2017-12-23T04:46:44.342Z,88.43
2017-12-23T04:47:24.921Z,88.62
2017-12-23T04:48:05.506Z,88.81
2017-12-23T04:48:46.110Z,88.62
2017-12-23T04:49:26.736Z,88.53
2017-12-23T04:50:07.290Z,88.91
2017-12-23T04:50:47.895Z,88.91
2017-12-23T04:51:28.472Z,88.91
2017-12-23T04:52:09.042Z,89
2017-12-23T04:52:49.619Z,88.81
2017-12-23T04:53:30.196Z,88.62
2017-12-23T04:54:10.781Z,88.53
2017-12-23T04:54:51.354Z,89
2017-12-23T04:55:31.960Z,89
2017-12-23T04:56:12.530Z,88.62
2017-12-23T04:56:53.114Z,88.72
2017-12-23T04:57:33.680Z,88.81
2017-12-23T04:58:14.274Z,88.72
2017-12-23T04:58:54.850Z,88.72
2017-12-23T04:59:35.431Z,88.81
2017-12-23T05:00:16.008Z,88.81
2017-12-23T05:00:56.566Z,88.72
2017-12-23T05:01:37.163Z,89
2017-12-23T05:02:17.744Z,88.81
2017-12-23T05:02:58.363Z,88.72
2017-12-23T05:03:38.948Z,88.62
2017-12-23T05:04:19.564Z,88.72
2017-12-23T05:05:00.120Z,88.72
2017-12-23T05:05:40.697Z,88.91
2017-12-23T05:06:21.314Z,89.39
2017-12-23T05:07:01.878Z,89.29
2017-12-23T05:07:42.458Z,89.29
2017-12-23T05:08:23.078Z,88.72
2017-12-23T05:09:03.639Z,89
2017-12-23T05:09:44.213Z,88.91
2017-12-23T05:10:24.779Z,88.91
2017-12-23T05:11:05.398Z,89
2017-12-23T05:11:45.978Z,88.72
2017-12-23T05:12:26.539Z,88.62
2017-12-23T05:13:07.128Z,88.53
2017-12-23T05:13:47.715Z,88.53
2017-12-23T05:14:28.333Z,89
2017-12-23T05:15:08.922Z,88.91
2017-12-23T05:15:49.497Z,88.81
2017-12-23T05:16:30.088Z,88.91
2017-12-23T05:17:10.684Z,89.29
2017-12-23T05:17:51.353Z,89.29
2017-12-23T05:18:31.924Z,89.2
2017-12-23T05:19:12.503Z,89.39
2017-12-23T05:19:53.062Z,88.81
2017-12-23T05:20:33.639Z,88.72
2017-12-23T05:21:14.248Z,88.91
2017-12-23T05:21:54.847Z,88.43
2017-12-23T05:22:35.451Z,88.43
2017-12-23T05:23:16.041Z,88.24
2017-12-23T05:23:56.612Z,88.91
2017-12-23T05:24:37.206Z,89
2017-12-23T05:25:17.768Z,88.81
2017-12-23T05:25:58.326Z,89
2017-12-23T05:26:38.892Z,88.62
2017-12-23T05:27:19.502Z,88.43
2017-12-23T05:28:00.080Z,89.29
2017-12-23T05:28:40.646Z,89.29
2017-12-23T05:29:21.267Z,89
2017-12-23T05:30:01.851Z,89.1
2017-12-23T05:30:42.420Z,88.62
2017-12-23T05:31:23.038Z,88.62
2017-12-23T05:32:03.624Z,88.81
2017-12-23T05:32:44.214Z,88.91
2017-12-23T05:33:24.796Z,88.24
2017-12-23T05:34:05.379Z,88.34
2017-12-23T05:34:45.944Z,88.53
2017-12-23T05:35:26.505Z,88.34
2017-12-23T05:36:07.106Z,88.24
2017-12-23T05:36:47.658Z,88.53
2017-12-23T05:37:28.225Z,88.24
2017-12-23T05:38:08.801Z,89
2017-12-23T05:38:49.392Z,88.91
2017-12-23T05:39:29.967Z,88.43
2017-12-23T05:40:10.615Z,89.39
2017-12-23T05:40:51.125Z,88.91
2017-12-23T05:41:31.715Z,89.1
2017-12-23T05:42:12.268Z,89.1
2017-12-23T05:42:52.836Z,89.1
2017-12-23T05:43:33.438Z,89.48
2017-12-23T05:44:14.036Z,89.86
2017-12-23T05:44:54.596Z,89.48
2017-12-23T05:45:35.156Z,89.39
2017-12-23T05:46:15.728Z,89.39
2017-12-23T05:46:56.288Z,89.1
2017-12-23T05:47:36.865Z,88.91
2017-12-23T05:48:17.498Z,89.1
2017-12-23T05:48:58.068Z,89.1
2017-12-23T05:49:38.656Z,89.58
2017-12-23T05:50:19.235Z,89.39
2017-12-23T05:50:59.812Z,89.67
2017-12-23T05:51:40.392Z,89.29
2017-12-23T05:52:20.961Z,89
2017-12-23T05:53:01.526Z,89
2017-12-23T05:53:42.094Z,89.86
2017-12-23T05:54:22.673Z,89.67
2017-12-23T05:55:03.246Z,89.58
2017-12-23T05:55:43.808Z,89.76
2017-12-23T05:56:24.400Z,89.67
2017-12-23T05:57:04.985Z,90.14
2017-12-23T05:57:45.554Z,89.95
2017-12-23T05:58:26.124Z,90.43
2017-12-23T05:59:06.703Z,90.24
2017-12-23T05:59:47.277Z,89.86
2017-12-23T06:00:27.853Z,90.24
2017-12-23T06:01:08.436Z,90.14
2017-12-23T06:01:48.993Z,90.33
2017-12-23T06:02:29.579Z,90.33
2017-12-23T06:03:10.175Z,90.14
2017-12-23T06:03:50.745Z,90.24
2017-12-23T06:04:31.322Z,90.33
2017-12-23T06:05:11.905Z,90.43
2017-12-23T06:05:52.479Z,90.43
2017-12-23T06:06:33.050Z,90.71
2017-12-23T06:07:13.672Z,90.43
2017-12-23T06:07:54.246Z,90.43
2017-12-23T06:08:34.822Z,90.43
2017-12-23T06:09:15.387Z,90.33
2017-12-23T06:09:55.999Z,91
2017-12-23T06:10:36.584Z,90.9
2017-12-23T06:11:17.152Z,90.71
2017-12-23T06:11:57.728Z,90.62
2017-12-23T06:12:38.303Z,91
2017-12-23T06:13:18.903Z,91
2017-12-23T06:13:59.480Z,91.19
2017-12-23T06:14:40.057Z,91.28
2017-12-23T06:15:20.628Z,91.38
2017-12-23T06:16:01.187Z,91.19
2017-12-23T06:16:41.754Z,91.47
2017-12-23T06:17:22.379Z,91.19
2017-12-23T06:18:02.949Z,91.19
2017-12-23T06:18:43.515Z,91.38
2017-12-23T06:19:24.132Z,91.56
2017-12-23T06:20:04.691Z,91.75
2017-12-23T06:20:45.271Z,91.56
2017-12-23T06:21:25.853Z,91.56
2017-12-23T06:22:06.437Z,91.56
2017-12-23T06:22:46.997Z,91.75
2017-12-23T06:23:27.610Z,91.56
2017-12-23T06:24:08.191Z,91.56
2017-12-23T06:24:48.750Z,91.19
2017-12-23T06:25:29.331Z,91.47
2017-12-23T06:26:09.931Z,91.85
2017-12-23T06:26:50.507Z,91.47
2017-12-23T06:27:31.076Z,91.85
2017-12-23T06:28:11.639Z,91.75
2017-12-23T06:28:52.212Z,91.85
2017-12-23T06:29:32.811Z,91.56
2017-12-23T06:30:13.393Z,91.94
2017-12-23T06:30:53.949Z,92.23
2017-12-23T06:31:34.530Z,92.23
2017-12-23T06:32:15.094Z,92.42
2017-12-23T06:32:55.663Z,92.33
2017-12-23T06:33:36.253Z,92.04
2017-12-23T06:34:16.837Z,92.04
2017-12-23T06:34:57.430Z,92.23
2017-12-23T06:35:37.988Z,92.42
2017-12-23T06:36:18.562Z,92.52
2017-12-23T06:36:59.126Z,92.23
2017-12-23T06:37:39.726Z,92.42
2017-12-23T06:38:20.302Z,92.9
2017-12-23T06:39:00.863Z,92.99
2017-12-23T06:39:41.462Z,92.9
2017-12-23T06:40:22.086Z,93.08
2017-12-23T06:41:02.642Z,92.99
2017-12-23T06:41:43.221Z,92.8
2017-12-23T06:42:23.790Z,93.27
2017-12-23T06:43:04.365Z,93.27
2017-12-23T06:43:44.938Z,93.37
2017-12-23T06:44:25.501Z,93.37
2017-12-23T06:45:06.068Z,93.27
2017-12-23T06:45:46.645Z,93.56
2017-12-23T06:46:27.236Z,93.37
2017-12-23T06:47:07.787Z,93.56
2017-12-23T06:47:48.354Z,93.37
2017-12-23T06:48:28.951Z,93.56
2017-12-23T06:49:09.513Z,93.27
2017-12-23T06:49:50.098Z,93.18
2017-12-23T06:50:30.673Z,93.56
2017-12-23T06:51:11.293Z,93.27
2017-12-23T06:51:51.871Z,93.18
2017-12-23T06:52:32.451Z,93.27
2017-12-23T06:53:13.016Z,93.27
2017-12-23T06:53:53.596Z,93.65
2017-12-23T06:54:34.149Z,93.75
2017-12-23T06:55:14.708Z,94.32
2017-12-23T06:55:55.295Z,94.03
2017-12-23T06:56:35.851Z,94.32
2017-12-23T06:57:16.425Z,93.94
2017-12-23T06:57:56.987Z,93.75
2017-12-23T06:58:37.551Z,94.03
2017-12-23T06:59:18.115Z,94.23
2017-12-23T06:59:58.678Z,94.13
2017-12-23T07:00:39.247Z,94.23
2017-12-23T07:01:19.825Z,94.03
2017-12-23T07:02:00.395Z,94.13
2017-12-23T07:02:40.958Z,94.23
2017-12-23T07:03:21.539Z,93.94
2017-12-23T07:04:02.115Z,94.03
2017-12-23T07:04:42.698Z,94.23
2017-12-23T07:05:23.282Z,94.7
2017-12-23T07:06:03.855Z,94.32
2017-12-23T07:06:44.441Z,94.13
2017-12-23T07:07:25.062Z,93.94
2017-12-23T07:08:05.621Z,93.84
2017-12-23T07:08:46.209Z,93.94
2017-12-23T07:09:26.812Z,94.03
2017-12-23T07:10:07.413Z,94.03
2017-12-23T07:10:47.992Z,93.94
2017-12-23T07:11:28.556Z,94.03
2017-12-23T07:12:09.129Z,94.03
2017-12-23T07:12:49.697Z,94.13
2017-12-23T07:13:30.284Z,93.94
2017-12-23T07:14:10.870Z,94.32
2017-12-23T07:14:51.473Z,94.32
2017-12-23T07:15:32.036Z,94.23
2017-12-23T07:16:12.628Z,94.03
2017-12-23T07:16:53.213Z,94.13
2017-12-23T07:17:33.781Z,94.03
2017-12-23T07:18:14.343Z,94.23
2017-12-23T07:18:54.932Z,94.51
2017-12-23T07:19:35.518Z,94.7
2017-12-23T07:20:16.101Z,94.51
2017-12-23T07:20:56.694Z,94.42
2017-12-23T07:21:37.285Z,94.32
2017-12-23T07:22:17.859Z,94.6
2017-12-23T07:22:58.437Z,94.51
2017-12-23T07:23:38.995Z,94.23
2017-12-23T07:24:19.574Z,94.32
2017-12-23T07:25:00.137Z,94.23
2017-12-23T07:25:40.709Z,94.23
2017-12-23T07:26:21.280Z,94.56
2017-12-23T07:27:01.855Z,94.23
2017-12-23T07:27:42.426Z,94.7
2017-12-23T07:28:23.003Z,94.42
2017-12-23T07:29:03.579Z,94.37
2017-12-23T07:29:44.146Z,94.46
2017-12-23T07:30:24.716Z,94.46
2017-12-23T07:31:05.320Z,94.23
2017-12-23T07:31:45.896Z,94.32
2017-12-23T07:32:26.488Z,94.56
2017-12-23T07:33:07.081Z,94.37
2017-12-23T07:33:47.639Z,94.6
2017-12-23T07:34:28.212Z,94.51
2017-12-23T07:35:08.778Z,94.56
2017-12-23T07:35:49.352Z,94.42
2017-12-23T07:36:29.941Z,94.98
2017-12-23T07:37:10.525Z,94.79
2017-12-23T07:37:51.113Z,94.42
2017-12-23T07:38:31.655Z,94.56
2017-12-23T07:39:12.231Z,94.7
2017-12-23T07:39:52.797Z,94.93
2017-12-23T07:40:33.370Z,94.98
2017-12-23T07:41:13.945Z,94.98
2017-12-23T07:41:54.558Z,95.12
2017-12-23T07:42:35.117Z,94.74
2017-12-23T07:43:15.717Z,95.6
2017-12-23T07:43:56.299Z,95.17
2017-12-23T07:44:36.873Z,95.51
2017-12-23T07:45:17.442Z,95.27
2017-12-23T07:45:58.026Z,95.07
2017-12-23T07:46:38.622Z,95.65
2017-12-23T07:47:19.189Z,95.31
2017-12-23T07:47:59.781Z,95.27
2017-12-23T07:48:40.356Z,95.51
2017-12-23T07:49:20.936Z,95.22
2017-12-23T07:50:01.524Z,95.31
2017-12-23T07:50:42.143Z,95.12
2017-12-23T07:51:22.717Z,95.46
2017-12-23T07:52:03.312Z,95.51
2017-12-23T07:52:43.875Z,95.22
2017-12-23T07:53:24.446Z,95.7
2017-12-23T07:54:05.058Z,95.22
2017-12-23T07:54:45.648Z,95.22
2017-12-23T07:55:26.233Z,95.03
2017-12-23T07:56:06.807Z,95.03
2017-12-23T07:56:47.377Z,95.22
2017-12-23T07:57:27.956Z,95.79
2017-12-23T07:58:08.537Z,95.03
2017-12-23T07:58:49.101Z,95.79
2017-12-23T07:59:29.660Z,95.6
2017-12-23T08:00:10.222Z,95.7
2017-12-23T08:00:50.786Z,95.7
2017-12-23T08:01:31.373Z,95.79
2017-12-23T08:02:11.930Z,95.89
2017-12-23T08:02:52.529Z,95.89
2017-12-23T08:03:33.119Z,95.79
2017-12-23T08:04:13.713Z,95.79
2017-12-23T08:04:54.270Z,95.79
2017-12-23T08:05:34.853Z,95.79
2017-12-23T08:06:15.420Z,95.79
2017-12-23T08:06:56.004Z,95.89
2017-12-23T08:07:36.609Z,95.6
2017-12-23T08:08:17.204Z,95.6
2017-12-23T08:08:57.803Z,95.89
2017-12-23T08:09:38.373Z,95.89
2017-12-23T08:10:18.950Z,95.7
2017-12-23T08:10:59.514Z,95.89
2017-12-23T08:11:40.093Z,95.98
2017-12-23T08:12:20.657Z,95.89
2017-12-23T08:13:01.258Z,95.89
2017-12-23T08:13:41.853Z,95.89
2017-12-23T08:14:22.455Z,95.03
2017-12-23T08:15:03.082Z,95.03
2017-12-23T08:15:43.663Z,95.31
2017-12-23T08:16:24.257Z,95.98
2017-12-23T08:17:04.835Z,95.12
2017-12-23T08:17:45.404Z,95.51
2017-12-23T08:18:26.001Z,95.22
2017-12-23T08:19:06.587Z,95.79
2017-12-23T08:19:47.158Z,95.03
2017-12-23T08:20:27.736Z,95.79
2017-12-23T08:21:08.316Z,95.41
2017-12-23T08:21:48.890Z,95.41
2017-12-23T08:22:29.477Z,95.22
2017-12-23T08:23:10.074Z,95.31
2017-12-23T08:23:50.640Z,95.31
2017-12-23T08:24:31.226Z,95.31
2017-12-23T08:25:11.806Z,95.12
2017-12-23T08:25:52.388Z,95.22
2017-12-23T08:26:32.941Z,95.12
2017-12-23T08:27:13.505Z,95.31
2017-12-23T08:27:54.119Z,95.41
2017-12-23T08:28:34.710Z,95.31
2017-12-23T08:29:15.279Z,95.51
2017-12-23T08:29:55.852Z,95.51
2017-12-23T08:30:36.444Z,94.74
2017-12-23T08:31:17.034Z,95.6
2017-12-23T08:31:57.595Z,95.51
2017-12-23T08:32:38.167Z,95.6
2017-12-23T08:33:18.733Z,95.79
2017-12-23T08:33:59.311Z,95.51
2017-12-23T08:34:39.889Z,94.98
2017-12-23T08:35:20.457Z,95.03
2017-12-23T08:36:01.032Z,95.17
2017-12-23T08:36:41.616Z,94.79
2017-12-23T08:37:22.174Z,95.03
2017-12-23T08:38:02.737Z,95.17
2017-12-23T08:38:43.338Z,95.17
2017-12-23T08:39:23.884Z,94.7
2017-12-23T08:40:04.473Z,94.79
2017-12-23T08:40:45.053Z,94.79
2017-12-23T08:41:25.637Z,94.89
2017-12-23T08:42:06.219Z,94.7
2017-12-23T08:42:46.816Z,94.89
2017-12-23T08:43:27.401Z,94.7
2017-12-23T08:44:08.010Z,94.79
2017-12-23T08:44:48.605Z,94.7
2017-12-23T08:45:29.200Z,94.84